createdAt,value
2022-08-25T00:00:26.836Z,23.20
2022-08-25T00:02:58.452Z,23.20
2022-08-25T00:05:37.797Z,23.10
2022-08-25T00:08:07.015Z,23.20
2022-08-25T00:10:44.862Z,23.10
2022-08-25T00:13:31.779Z,23.10
2022-08-25T00:16:03.816Z,23.10
2022-08-25T00:18:31.508Z,23.10
2022-08-25T00:20:59.449Z,23.10
2022-08-25T00:23:26.922Z,23.10
2022-08-25T00:25:55.452Z,23.10
2022-08-25T00:28:28.349Z,23.10
2022-08-25T00:30:56.238Z,23.00
2022-08-25T00:33:23.723Z,23.00
2022-08-25T00:35:52.115Z,23.00
2022-08-25T00:38:21.271Z,22.90
2022-08-25T00:41:08.202Z,23.00
2022-08-25T00:43:41.498Z,22.90
2022-08-25T00:46:13.423Z,22.90
2022-08-25T00:48:45.687Z,22.90
2022-08-25T00:51:17.287Z,22.90
2022-08-25T00:53:51.278Z,22.90
2022-08-25T00:56:21.380Z,22.90
2022-08-25T00:58:55.397Z,22.80
2022-08-25T01:01:28.469Z,22.80
2022-08-25T01:03:57.003Z,22.80
2022-08-25T01:06:33.928Z,22.80
2022-08-25T01:09:04.379Z,22.80
2022-08-25T01:11:32.053Z,22.70
2022-08-25T01:14:03.461Z,22.70
2022-08-25T01:16:31.147Z,22.70
2022-08-25T01:19:00.849Z,22.70
2022-08-25T01:21:53.958Z,22.70
2022-08-25T01:24:37.762Z,22.70
2022-08-25T01:27:10.842Z,22.70
2022-08-25T01:29:39.696Z,22.70
2022-08-25T01:32:13.505Z,22.80
2022-08-25T01:34:45.953Z,22.60
2022-08-25T01:37:18.219Z,22.80
2022-08-25T01:39:46.974Z,22.70
2022-08-25T01:42:39.318Z,22.70
2022-08-25T01:45:10.792Z,22.80
2022-08-25T01:47:38.588Z,22.70
2022-08-25T01:50:08.110Z,22.70
2022-08-25T01:52:59.042Z,22.70
2022-08-25T01:55:52.324Z,22.70
2022-08-25T01:58:24.400Z,22.70
2022-08-25T02:00:56.452Z,22.60
2022-08-25T02:03:26.296Z,22.60
2022-08-25T02:05:57.414Z,22.70
2022-08-25T02:08:26.069Z,22.60
2022-08-25T02:10:56.140Z,22.60
2022-08-25T02:13:31.660Z,22.60
2022-08-25T02:16:05.343Z,22.50
2022-08-25T02:18:33.463Z,22.50
2022-08-25T02:21:03.745Z,22.50
2022-08-25T02:23:38.366Z,22.40
2022-08-25T02:26:06.219Z,22.40
2022-08-25T02:28:40.271Z,22.40
2022-08-25T02:31:11.058Z,22.30
2022-08-25T02:33:40.278Z,22.40
2022-08-25T02:36:10.901Z,22.30
2022-08-25T02:38:42.459Z,22.20
2022-08-25T02:41:14.661Z,22.20
2022-08-25T02:43:43.734Z,22.10
2022-08-25T02:46:15.186Z,22.10
2022-08-25T02:48:43.315Z,22.10
2022-08-25T02:51:12.839Z,22.20
2022-08-25T02:53:42.601Z,22.10
2022-08-25T02:56:21.496Z,22.00
2022-08-25T02:58:51.881Z,22.10
2022-08-25T03:01:19.740Z,22.10
2022-08-25T03:04:13.271Z,22.00
2022-08-25T03:06:41.519Z,22.10
2022-08-25T03:12:03.483Z,22.10
2022-08-25T03:14:31.647Z,22.10
2022-08-25T03:17:00.409Z,22.20
2022-08-25T03:19:36.873Z,22.20
2022-08-25T03:22:05.175Z,22.30
2022-08-25T03:24:32.974Z,22.30
2022-08-25T03:27:00.671Z,22.30
2022-08-25T03:29:33.832Z,22.20
2022-08-25T03:32:03.719Z,22.30
2022-08-25T03:34:35.169Z,22.30
2022-08-25T03:37:06.377Z,22.20
2022-08-25T03:39:36.265Z,22.30
2022-08-25T03:42:04.964Z,22.30
2022-08-25T03:44:34.005Z,22.40
2022-08-25T03:47:01.891Z,22.30
2022-08-25T03:49:34.621Z,22.40
2022-08-25T03:52:05.246Z,22.50
2022-08-25T03:54:33.530Z,22.40
2022-08-25T03:57:01.618Z,22.40
2022-08-25T03:59:32.712Z,22.50
2022-08-25T04:02:05.513Z,22.50
2022-08-25T04:04:38.967Z,22.60
2022-08-25T04:07:07.036Z,22.50
2022-08-25T04:09:36.978Z,22.60
2022-08-25T04:12:33.582Z,22.60
2022-08-25T04:15:11.527Z,22.70
2022-08-25T04:17:45.699Z,22.70
2022-08-25T04:20:17.210Z,22.70
2022-08-25T04:22:50.192Z,22.70
2022-08-25T04:25:29.346Z,22.70
2022-08-25T04:28:02.437Z,22.70
2022-08-25T04:30:33.128Z,22.70
2022-08-25T04:33:17.115Z,22.70
2022-08-25T04:35:54.270Z,22.70
2022-08-25T04:38:24.054Z,22.80
2022-08-25T04:41:00.264Z,22.90
2022-08-25T04:43:30.241Z,22.90
2022-08-25T04:45:59.194Z,22.90
2022-08-25T04:48:30.641Z,22.90
2022-08-25T04:50:58.244Z,23.00
2022-08-25T04:53:31.361Z,23.00
2022-08-25T04:56:03.703Z,23.10
2022-08-25T04:58:36.608Z,23.00
2022-08-25T05:01:20.881Z,23.10
2022-08-25T05:03:59.303Z,23.00
2022-08-25T05:06:30.655Z,23.10
2022-08-25T05:09:02.075Z,23.20
2022-08-25T05:11:46.240Z,23.30
2022-08-25T05:14:21.734Z,23.40
2022-08-25T05:17:02.260Z,23.50
2022-08-25T05:19:56.125Z,23.60
2022-08-25T05:22:23.664Z,23.60
2022-08-25T05:24:54.509Z,23.70
2022-08-25T05:27:22.567Z,23.80
2022-08-25T05:29:52.651Z,23.90
2022-08-25T05:32:26.479Z,24.10
2022-08-25T05:35:05.717Z,24.10
2022-08-25T05:37:39.085Z,24.30
2022-08-25T05:40:13.824Z,24.60
2022-08-25T05:42:50.210Z,24.90
2022-08-25T05:45:20.336Z,25.30
2022-08-25T05:47:55.573Z,25.70
2022-08-25T05:50:29.479Z,26.30
2022-08-25T05:53:06.472Z,26.70
2022-08-25T05:55:37.512Z,27.20
2022-08-25T05:58:14.204Z,27.70
2022-08-25T06:01:21.418Z,27.50
2022-08-25T06:04:01.389Z,27.30
2022-08-25T06:06:33.066Z,27.10
2022-08-25T06:09:10.936Z,27.10
2022-08-25T06:11:40.459Z,27.70
2022-08-25T06:14:28.633Z,28.70
2022-08-25T06:17:05.512Z,29.40
2022-08-25T06:19:37.072Z,29.80
2022-08-25T06:25:17.731Z,29.80
2022-08-25T06:27:50.108Z,30.00
2022-08-25T06:30:38.020Z,31.00
2022-08-25T06:33:25.729Z,32.10
2022-08-25T06:36:01.380Z,32.20
2022-08-25T06:38:46.677Z,32.00
2022-08-25T06:41:18.896Z,31.70
2022-08-25T06:44:30.830Z,31.50
2022-08-25T06:47:01.796Z,31.30
2022-08-25T06:49:56.599Z,31.40
2022-08-25T06:52:35.826Z,31.50
2022-08-25T06:55:12.068Z,31.40
2022-08-25T06:57:44.916Z,30.70
2022-08-25T07:00:30.290Z,30.10
2022-08-25T07:03:13.582Z,29.60
2022-08-25T07:06:15.196Z,29.30
2022-08-25T07:09:18.502Z,28.90
2022-08-25T07:12:16.588Z,28.60
2022-08-25T07:14:58.098Z,28.60
2022-08-25T07:17:35.481Z,29.00
2022-08-25T07:20:19.882Z,29.80
2022-08-25T07:23:07.469Z,30.20
2022-08-25T07:25:48.742Z,30.60
2022-08-25T07:28:20.719Z,30.80
2022-08-25T07:31:01.298Z,31.10
2022-08-25T07:33:32.980Z,31.60
2022-08-25T07:36:14.062Z,32.00
2022-08-25T07:39:09.673Z,32.30
2022-08-25T07:41:46.053Z,32.30
2022-08-25T07:44:22.138Z,31.80
2022-08-25T07:47:12.892Z,31.30
2022-08-25T07:49:41.333Z,31.30
2022-08-25T07:52:09.489Z,31.80
2022-08-25T07:54:53.260Z,32.80
2022-08-25T07:57:57.535Z,33.90
2022-08-25T08:00:43.775Z,34.90
2022-08-25T08:03:50.439Z,35.10
2022-08-25T08:13:41.417Z,35.00
2022-08-25T08:16:49.659Z,33.80
2022-08-25T08:19:56.692Z,33.20
2022-08-25T08:22:58.460Z,32.70
2022-08-25T08:25:46.595Z,32.30
2022-08-25T08:28:18.251Z,32.50
2022-08-25T08:31:06.625Z,32.60
2022-08-25T08:36:58.372Z,33.50
2022-08-25T08:39:31.835Z,33.50
2022-08-25T08:42:22.750Z,33.20
2022-08-25T08:45:13.039Z,33.30
2022-08-25T08:51:25.906Z,34.40
2022-08-25T08:57:31.063Z,34.80
2022-08-25T09:00:20.459Z,35.40
2022-08-25T09:03:42.629Z,35.70
2022-08-25T09:06:54.792Z,35.70
2022-08-25T09:10:19.473Z,35.70
2022-08-25T09:13:15.484Z,35.60
2022-08-25T09:16:20.432Z,36.00
2022-08-25T09:19:21.356Z,35.90
2022-08-25T09:22:35.549Z,35.80
2022-08-25T09:25:29.614Z,35.20
2022-08-25T09:28:26.414Z,34.40
2022-08-25T09:31:06.787Z,33.80
2022-08-25T09:33:36.263Z,33.40
2022-08-25T09:36:19.306Z,33.00
2022-08-25T09:38:47.575Z,32.60
2022-08-25T09:41:25.660Z,32.20
2022-08-25T09:44:15.670Z,31.60
2022-08-25T09:47:05.849Z,31.30
2022-08-25T09:49:51.439Z,31.20
2022-08-25T09:52:35.581Z,31.20
2022-08-25T09:55:14.692Z,31.00
2022-08-25T09:57:46.004Z,30.80
2022-08-25T10:00:27.117Z,30.40
2022-08-25T10:03:15.454Z,30.50
2022-08-25T10:05:46.991Z,30.10
2022-08-25T10:08:39.496Z,29.80
2022-08-25T10:11:48.891Z,29.90
2022-08-25T10:14:37.608Z,30.00
2022-08-25T10:17:33.590Z,30.00
2022-08-25T10:20:25.973Z,29.80
2022-08-25T10:23:50.266Z,29.40
2022-08-25T10:26:48.979Z,29.10
2022-08-25T10:30:15.583Z,29.20
2022-08-25T10:32:53.638Z,29.40
2022-08-25T10:35:49.459Z,29.40
2022-08-25T10:38:43.071Z,29.30
2022-08-25T10:41:53.455Z,29.40
2022-08-25T10:45:23.086Z,29.50
2022-08-25T10:48:26.478Z,29.70
2022-08-25T10:51:25.268Z,29.90
2022-08-25T10:54:09.541Z,29.80
2022-08-25T10:56:45.088Z,29.60
2022-08-25T10:59:42.241Z,29.60
2022-08-25T11:02:38.800Z,29.90
2022-08-25T11:05:24.227Z,30.00
2022-08-25T11:08:16.953Z,30.20
2022-08-25T11:11:14.625Z,30.30
2022-08-25T11:13:57.302Z,30.30
2022-08-25T11:17:07.975Z,30.30
2022-08-25T11:19:53.278Z,30.00
2022-08-25T11:22:59.837Z,29.70
2022-08-25T11:25:38.218Z,29.70
2022-08-25T11:28:22.375Z,29.90
2022-08-25T11:31:10.694Z,29.90
2022-08-25T11:33:56.055Z,30.00
2022-08-25T11:37:01.346Z,29.80
2022-08-25T11:40:06.992Z,29.50
2022-08-25T11:42:46.803Z,29.20
2022-08-25T11:45:54.861Z,29.00
2022-08-25T11:51:53.590Z,28.70
2022-08-25T11:54:40.354Z,28.80
2022-08-25T11:57:19.574Z,28.80
2022-08-25T11:59:57.757Z,28.70
2022-08-25T12:02:51.332Z,28.50
2022-08-25T12:05:27.065Z,28.40
2022-08-25T12:08:20.575Z,28.50
2022-08-25T12:14:42.132Z,28.60
2022-08-25T12:17:28.079Z,28.50
2022-08-25T12:20:02.427Z,28.40
2022-08-25T12:22:34.056Z,28.40
2022-08-25T12:25:34.333Z,28.50
2022-08-25T12:28:52.145Z,28.50
2022-08-25T12:31:31.464Z,28.30
2022-08-25T12:34:35.602Z,28.20
2022-08-25T12:37:28.547Z,28.20
2022-08-25T12:40:06.966Z,28.10
2022-08-25T12:42:47.550Z,28.00
2022-08-25T12:45:52.145Z,27.80
2022-08-25T12:48:59.888Z,27.70
2022-08-25T12:51:48.481Z,27.60
2022-08-25T12:54:35.996Z,27.60
2022-08-25T12:57:57.861Z,27.90
2022-08-25T13:04:01.862Z,27.60
2022-08-25T13:07:03.667Z,27.50
2022-08-25T13:10:13.502Z,27.40
2022-08-25T13:13:25.993Z,27.40
2022-08-25T13:16:14.174Z,27.30
2022-08-25T13:18:43.024Z,27.20
2022-08-25T13:21:31.937Z,27.40
2022-08-25T13:24:06.244Z,27.40
2022-08-25T13:26:49.301Z,27.60
2022-08-25T13:29:28.215Z,27.80
2022-08-25T13:32:12.664Z,27.80
2022-08-25T13:34:43.351Z,27.90
2022-08-25T13:37:30.318Z,27.70
2022-08-25T13:40:31.338Z,27.60
2022-08-25T13:43:06.428Z,27.50
2022-08-25T13:45:50.343Z,27.40
2022-08-25T13:48:49.332Z,27.30
2022-08-25T13:51:36.145Z,27.20
2022-08-25T13:55:04.699Z,27.30
2022-08-25T13:57:36.684Z,27.30
2022-08-25T14:00:18.636Z,27.20
2022-08-25T14:03:13.947Z,27.10
2022-08-25T14:05:49.139Z,27.00
2022-08-25T14:08:37.625Z,26.90
2022-08-25T14:11:21.074Z,26.80
2022-08-25T14:14:03.995Z,26.80
2022-08-25T14:17:39.275Z,26.70
2022-08-25T14:20:23.182Z,26.60
2022-08-25T14:23:18.857Z,26.50
2022-08-25T14:25:51.420Z,26.40
2022-08-25T14:28:22.829Z,26.40
2022-08-25T14:31:06.860Z,26.50
2022-08-25T14:33:55.203Z,26.60
2022-08-25T14:36:23.371Z,26.60
2022-08-25T14:38:54.927Z,26.60
2022-08-25T14:41:24.442Z,26.50
2022-08-25T14:43:56.342Z,26.40
2022-08-25T14:46:35.552Z,26.20
2022-08-25T14:49:10.213Z,26.10
2022-08-25T14:51:45.818Z,26.00
2022-08-25T14:54:20.407Z,26.00
2022-08-25T14:56:54.627Z,26.00
2022-08-25T14:59:31.131Z,26.10
2022-08-25T15:02:09.620Z,26.10
2022-08-25T15:04:39.202Z,26.00
2022-08-25T15:07:40.159Z,26.00
2022-08-25T15:10:13.729Z,26.00
2022-08-25T15:12:47.708Z,26.00
2022-08-25T15:15:20.669Z,26.00
2022-08-25T15:18:03.339Z,26.10
2022-08-25T15:20:35.856Z,26.00
2022-08-25T15:23:05.416Z,26.00
2022-08-25T15:25:40.713Z,26.00
2022-08-25T15:28:17.412Z,25.90
2022-08-25T15:30:51.201Z,25.90
2022-08-25T15:33:28.561Z,25.70
2022-08-25T15:35:57.365Z,25.50
2022-08-25T15:38:26.489Z,25.40
2022-08-25T15:40:57.228Z,25.40
2022-08-25T15:43:29.087Z,25.20
2022-08-25T15:46:01.216Z,25.20
2022-08-25T15:48:31.641Z,25.30
2022-08-25T15:51:04.190Z,25.30
2022-08-25T15:53:35.035Z,25.20
2022-08-25T15:56:07.173Z,25.20
2022-08-25T15:58:37.578Z,25.20
2022-08-25T16:01:18.486Z,25.20
2022-08-25T16:04:06.135Z,25.20
2022-08-25T16:06:35.203Z,25.20
2022-08-25T16:09:04.188Z,25.20
2022-08-25T16:11:35.228Z,25.20
2022-08-25T16:14:10.406Z,25.10
2022-08-25T16:16:46.006Z,25.00
2022-08-25T16:19:18.219Z,25.00
2022-08-25T16:21:48.521Z,25.00
2022-08-25T16:24:26.829Z,25.00
2022-08-25T16:27:11.447Z,25.00
2022-08-25T16:29:42.139Z,25.00
2022-08-25T16:32:14.959Z,25.10
2022-08-25T16:34:44.778Z,25.00
2022-08-25T16:37:21.086Z,25.10
2022-08-25T16:39:57.518Z,24.90
2022-08-25T16:42:28.751Z,24.80
2022-08-25T16:44:56.680Z,24.80
2022-08-25T16:47:25.189Z,24.80
2022-08-25T16:50:02.595Z,24.70
2022-08-25T16:52:51.345Z,24.60
2022-08-25T16:55:22.906Z,24.50
2022-08-25T16:57:54.527Z,24.40
2022-08-25T17:00:28.946Z,24.30
2022-08-25T17:03:07.676Z,24.30
2022-08-25T17:05:45.197Z,24.20
2022-08-25T17:08:32.292Z,24.10
2022-08-25T17:11:10.675Z,24.00
2022-08-25T17:13:44.807Z,23.90
2022-08-25T17:16:14.569Z,23.80
2022-08-25T17:18:47.662Z,23.70
2022-08-25T17:21:24.375Z,23.60
2022-08-25T17:23:54.241Z,23.60
2022-08-25T17:26:27.758Z,23.40
2022-08-25T17:28:59.263Z,23.40
2022-08-25T17:31:30.858Z,23.40
2022-08-25T17:34:06.165Z,23.30
2022-08-25T17:36:34.686Z,23.40
2022-08-25T17:39:03.147Z,23.20
2022-08-25T17:41:31.348Z,23.10
2022-08-25T17:44:03.174Z,23.10
2022-08-25T17:46:31.154Z,23.00
2022-08-25T17:49:05.362Z,22.90
2022-08-25T17:51:33.703Z,22.90
2022-08-25T17:54:01.978Z,22.90
2022-08-25T17:56:29.228Z,22.80
2022-08-25T17:59:00.373Z,22.90
2022-08-25T18:01:31.796Z,22.80
2022-08-25T18:04:05.983Z,22.80
2022-08-25T18:06:36.888Z,22.80
2022-08-25T18:09:06.025Z,22.70
2022-08-25T18:11:41.404Z,22.80
2022-08-25T18:14:16.791Z,22.70
2022-08-25T18:16:45.849Z,22.70
2022-08-25T18:19:19.040Z,22.60
2022-08-25T18:21:49.569Z,22.70
2022-08-25T18:24:23.714Z,22.60
2022-08-25T18:27:05.364Z,22.50
2022-08-25T18:29:44.605Z,22.50
2022-08-25T18:32:42.347Z,22.50
2022-08-25T18:35:10.168Z,22.50
2022-08-25T18:37:56.493Z,22.50
2022-08-25T18:40:33.047Z,22.40
2022-08-25T18:43:07.747Z,22.50
2022-08-25T18:45:44.567Z,22.40
2022-08-25T18:48:12.794Z,22.40
2022-08-25T18:50:59.296Z,22.40
2022-08-25T18:53:49.507Z,22.40
2022-08-25T18:56:28.283Z,22.40
2022-08-25T18:58:57.448Z,22.40
2022-08-25T19:01:28.614Z,22.30
2022-08-25T19:03:59.103Z,22.30
2022-08-25T19:06:29.930Z,22.30
2022-08-25T19:08:58.108Z,22.20
2022-08-25T19:11:26.022Z,22.30
2022-08-25T19:14:00.031Z,22.30
2022-08-25T19:16:43.685Z,22.20
2022-08-25T19:19:13.760Z,22.30
2022-08-25T19:21:48.195Z,22.30
2022-08-25T19:24:19.973Z,22.20
2022-08-25T19:26:54.457Z,22.20
2022-08-25T19:29:30.530Z,22.20
2022-08-25T19:32:01.289Z,22.10
2022-08-25T19:34:36.625Z,22.10
2022-08-25T19:37:11.891Z,22.10
2022-08-25T19:39:52.598Z,22.10
2022-08-25T19:42:37.059Z,22.10
2022-08-25T19:45:23.709Z,22.00
2022-08-25T19:47:53.752Z,22.00
2022-08-25T19:50:23.923Z,22.10
2022-08-25T19:52:51.716Z,22.00
2022-08-25T19:55:31.407Z,22.10
2022-08-25T19:57:59.721Z,22.00
2022-08-25T20:00:31.442Z,21.90
2022-08-25T20:03:00.717Z,22.00
2022-08-25T20:05:29.462Z,22.00
2022-08-25T20:07:59.153Z,22.00
2022-08-25T20:10:29.517Z,22.00
2022-08-25T20:13:00.051Z,21.90
2022-08-25T20:15:28.425Z,22.00
2022-08-25T20:18:09.135Z,21.90
2022-08-25T20:20:37.699Z,21.90
2022-08-25T20:23:29.171Z,22.00
2022-08-25T20:26:02.726Z,22.00
2022-08-25T20:28:33.238Z,21.90
2022-08-25T20:31:01.256Z,21.90
2022-08-25T20:33:29.239Z,21.90
2022-08-25T20:36:00.203Z,21.80
2022-08-25T20:38:32.165Z,21.80
2022-08-25T20:41:01.554Z,21.90
2022-08-25T20:43:30.683Z,21.80
2022-08-25T20:46:06.054Z,21.80
2022-08-25T20:48:39.730Z,21.80
2022-08-25T20:51:09.896Z,21.80
2022-08-25T20:54:05.303Z,21.80
2022-08-25T20:56:32.681Z,21.80
2022-08-25T20:59:03.018Z,21.70
2022-08-25T21:01:42.368Z,21.70
2022-08-25T21:04:17.953Z,21.80
2022-08-25T21:06:49.866Z,21.80
2022-08-25T21:09:21.096Z,21.70
2022-08-25T21:12:01.740Z,21.70
2022-08-25T21:14:31.607Z,21.70
2022-08-25T21:17:00.446Z,21.70
2022-08-25T21:19:34.697Z,21.70
2022-08-25T21:22:02.151Z,21.70
2022-08-25T21:24:37.283Z,21.70
2022-08-25T21:27:06.862Z,21.70
2022-08-25T21:29:34.419Z,21.70
2022-08-25T21:32:04.894Z,21.70
2022-08-25T21:34:32.636Z,21.70
2022-08-25T21:37:07.568Z,21.70
2022-08-25T21:39:40.763Z,21.60
2022-08-25T21:44:36.808Z,21.70
2022-08-25T21:47:14.131Z,21.70
2022-08-25T21:49:43.947Z,21.70
2022-08-25T21:52:15.803Z,21.60
2022-08-25T21:54:44.608Z,21.70
2022-08-25T21:57:14.621Z,21.50
2022-08-25T21:59:43.915Z,21.60
2022-08-25T22:02:18.063Z,21.60
2022-08-25T22:04:54.581Z,21.60
2022-08-25T22:07:28.697Z,21.60
2022-08-25T22:10:17.742Z,21.60
2022-08-25T22:12:52.521Z,21.60
2022-08-25T22:15:23.376Z,21.60
2022-08-25T22:17:53.501Z,21.60
2022-08-25T22:20:21.305Z,21.60
2022-08-25T22:22:48.989Z,21.60
2022-08-25T22:25:23.831Z,21.60
2022-08-25T22:27:56.457Z,21.60
2022-08-25T22:30:29.470Z,21.60
2022-08-25T22:32:59.548Z,21.50
2022-08-25T22:35:28.619Z,21.40
2022-08-25T22:37:56.988Z,21.50
2022-08-25T22:40:42.325Z,21.40
2022-08-25T22:43:10.840Z,21.40
2022-08-25T22:45:39.923Z,21.40
2022-08-25T22:48:07.966Z,21.40
2022-08-25T22:50:44.944Z,21.30
2022-08-25T22:53:13.095Z,21.20
2022-08-25T22:55:44.137Z,21.20
2022-08-25T22:58:14.379Z,21.20
2022-08-25T23:00:42.926Z,21.20
2022-08-25T23:03:12.912Z,21.20
2022-08-25T23:05:43.619Z,21.10
2022-08-25T23:08:11.352Z,21.00
2022-08-25T23:10:39.241Z,21.00
2022-08-25T23:13:33.938Z,21.00
2022-08-25T23:15:57.654Z,20.90
2022-08-25T23:18:29.133Z,20.80
2022-08-25T23:21:16.226Z,20.80
2022-08-25T23:23:51.968Z,20.80
2022-08-25T23:26:21.888Z,20.70
2022-08-25T23:28:53.461Z,20.80
2022-08-25T23:31:31.987Z,20.80
2022-08-25T23:34:00.981Z,20.70
2022-08-25T23:36:30.706Z,20.70
2022-08-25T23:38:58.216Z,20.60
2022-08-25T23:41:26.539Z,20.60
2022-08-25T23:43:55.095Z,20.50
2022-08-25T23:46:30.168Z,20.60
2022-08-25T23:48:58.122Z,20.50
2022-08-25T23:51:37.323Z,20.60
2022-08-25T23:54:09.205Z,20.50
2022-08-25T23:56:52.029Z,20.50
2022-08-25T23:59:29.542Z,20.50
